Time;durP1;ratioP1;P1;durP2;ratioP2;P2;SDS_P1;SDS_P2;PMS_P1;PMS_P2;Temp;Humidity;BMP_temperature;BMP_pressure;BME280_temperature;BME280_humidity;BME280_pressure;Samples;Min_cycle;Max_cycle;Signal;HPM_P1;HPM_P2
2022/06/05 00:01:18;;;;;;;4.22;2.03;;;;;;;;;;5017649;28;20459;-82
2022/06/05 00:04:02;;;;;;;2.72;1.85;;;;;;;;;;5017023;28;20992;-82
2022/06/05 00:06:34;;;;;;;4.88;2.60;;;;;;;;;;5018381;28;20488;-81
2022/06/05 00:09:27;;;;;;;6.68;2.72;;;15.30;99.90;;;;;;5018011;28;20520;-82
2022/06/05 00:11:58;;;;;;;3.87;2.20;;;;;;;;;;5016099;28;20448;-82
2022/06/05 00:14:24;;;;;;;3.65;2.30;;;;;;;;;;5016718;28;20517;-82
2022/06/05 00:16:51;;;;;;;4.07;2.20;;;;;;;;;;5018448;28;20475;-81
2022/06/05 00:19:17;;;;;;;2.63;1.92;;;;;;;;;;5016856;28;20940;-82
2022/06/05 00:21:43;;;;;;;4.20;2.30;;;;;;;;;;5019250;28;20469;-82
2022/06/05 00:24:09;;;;;;;4.20;2.08;;;;;;;;;;5023881;28;20408;-81
2022/06/05 00:26:46;;;;;;;4.45;1.98;;;;;;;;;;5022515;28;20424;-81
2022/06/05 00:29:22;;;;;;;3.33;2.25;;;;;;;;;;5018094;28;20556;-82
2022/06/05 00:31:52;;;;;;;3.50;2.53;;;;;;;;;;5019413;28;20440;-81
2022/06/05 00:34:18;;;;;;;3.80;2.53;;;;;;;;;;5017635;28;21074;-81
2022/06/05 00:36:44;;;;;;;4.43;2.28;;;;;;;;;;5022874;28;20409;-82
2022/06/05 00:39:18;;;;;;;4.43;2.72;;;;;;;;;;5024512;28;20401;-82
2022/06/05 00:41:50;;;;;;;4.07;2.13;;;;;;;;;;5015436;28;20691;-81
2022/06/05 00:44:19;;;;;;;3.40;2.20;;;;;;;;;;5021678;28;20405;-81
2022/06/05 00:46:46;;;;;;;2.67;1.90;;;;;;;;;;5017235;28;21053;-83
2022/06/05 00:49:12;;;;;;;5.32;2.47;;;;;;;;;;5008350;28;20409;-82
2022/06/05 00:51:38;;;;;;;4.95;2.45;;;;;;;;;;5016670;28;20424;-82
2022/06/05 00:54:06;;;;;;;3.87;2.50;;;;;;;;;;5018334;28;20485;-81
2022/06/05 00:56:32;;;;;;;3.97;2.30;;;;;;;;;;5016120;28;20549;-81
2022/06/05 00:58:58;;;;;;;4.25;2.90;;;;;;;;;;5015489;28;20428;-82
2022/06/05 01:01:25;;;;;;;6.30;2.60;;;;;;;;;;5020424;28;20408;-82
2022/06/05 01:03:52;;;;;;;4.88;2.80;;;;;;;;;;5018522;28;20420;-82
2022/06/05 01:06:18;;;;;;;4.10;2.93;;;;;;;;;;5019017;28;20423;-82
2022/06/05 01:08:44;;;;;;;5.03;2.83;;;;;;;;;;5021397;28;20439;-82
2022/06/05 01:11:18;;;;;;;8.82;3.65;;;;;;;;;;5022670;28;20413;-82
2022/06/05 01:13:53;;;;;;;3.60;2.70;;;;;;;;;;5006924;28;20442;-82
2022/06/05 01:16:30;;;;;;;4.40;2.78;;;;;;;;;;5016910;28;20782;-81
2022/06/05 01:19:15;;;;;;;4.05;3.03;;;;;;;;;;5014030;28;20544;-82
2022/06/05 01:21:51;;;;;;;4.57;2.70;;;;;;;;;;5024668;28;20454;-82
2022/06/05 01:24:17;;;;;;;4.10;2.40;;;;;;;;;;5010913;28;20417;-82
2022/06/05 01:26:53;;;;;;;5.47;3.10;;;;;;;;;;5009141;28;20417;-82
2022/06/05 01:29:25;;;;;;;3.78;2.30;;;;;;;;;;5014259;28;20416;-82
2022/06/05 01:31:56;;;;;;;4.78;2.72;;;;;;;;;;5010356;28;20782;-82
2022/06/05 01:34:24;;;;;;;3.63;2.50;;;;;;;;;;5014197;28;20473;-83
2022/06/05 01:36:50;;;;;;;3.75;2.15;;;;;;;;;;5026536;28;20417;-81
2022/06/05 01:39:42;;;;;;;4.22;2.33;;;;;;;;;;5023302;28;20389;-82
2022/06/05 01:42:12;;;;;;;3.08;2.33;;;;;;;;;;5024429;28;20416;-80
2022/06/05 01:44:43;;;;;;;4.18;2.70;;;;;;;;;;5025493;28;20445;-81
2022/06/05 01:47:15;;;;;;;4.75;2.90;;;;;;;;;;5027144;28;20420;-80
2022/06/05 01:49:51;;;;;;;6.28;3.00;;;;;;;;;;5023512;28;20447;-82
2022/06/05 01:52:21;;;;;;;4.88;2.80;;;;;;;;;;5019840;28;20412;-82
2022/06/05 01:55:01;;;;;;;5.60;3.35;;;;;;;;;;5014948;28;20440;-81
2022/06/05 01:57:29;;;;;;;4.85;3.10;;;;;;;;;;5018010;28;20425;-83
2022/06/05 01:59:57;;;;;;;4.20;2.60;;;;;;;;;;5017819;28;20469;-81
2022/06/05 02:02:28;;;;;;;5.43;3.03;;;;;;;;;;5018620;28;20416;-82
2022/06/05 02:05:03;;;;;;;3.33;2.33;;;;;;;;;;5014862;28;20444;-82
2022/06/05 02:07:33;;;;;;;5.00;2.85;;;;;;;;;;5019835;28;20443;-81
2022/06/05 02:10:01;;;;;;;3.72;2.33;;;;;;;;;;5020278;28;20411;-81
2022/06/05 02:12:28;;;;;;;4.57;2.53;;;;;;;;;;5021480;28;20424;-81
2022/06/05 02:14:55;;;;;;;3.65;2.67;;;;;;;;;;5017380;28;20413;-82
2022/06/05 02:17:21;;;;;;;3.78;2.65;;;;;;;;;;5016196;28;20409;-82
2022/06/05 02:19:47;;;;;;;5.80;2.63;;;;;;;;;;5013740;28;20427;-82
2022/06/05 02:22:16;;;;;;;3.42;2.55;;;;;;;;;;5019750;28;20409;-82
2022/06/05 02:24:43;;;;;;;4.30;2.75;;;;;;;;;;5020653;28;20421;-82
2022/06/05 02:27:09;;;;;;;7.45;2.92;;;;;;;;;;5017547;28;20421;-82
2022/06/05 02:29:36;;;;;;;5.63;2.83;;;;;;;;;;5026545;28;20412;-82
2022/06/05 02:32:21;;;;;;;4.60;2.95;;;;;;;;;;5020352;28;20404;-81
2022/06/05 02:34:54;;;;;;;4.32;2.85;;;;;;;;;;5024352;28;20393;-82
2022/06/05 02:37:39;;;;;;;5.78;3.03;;;;;;;;;;5017151;28;20410;-82
2022/06/05 02:40:13;;;;;;;4.28;3.03;;;;;;;;;;5022739;28;20556;-82
2022/06/05 02:42:48;;;;;;;5.80;3.23;;;;;;;;;;5022400;28;20405;-82
2022/06/05 02:45:20;;;;;;;5.00;3.20;;;;;;;;;;5022820;28;20498;-82
2022/06/05 02:47:46;;;;;;;5.03;3.60;;;;;;;;;;5020391;28;20436;-82
2022/06/05 02:50:25;;;;;;;6.63;3.60;;;;;;;;;;5023318;28;20604;-82
2022/06/05 02:52:51;;;;;;;5.93;3.33;;;;;;;;;;5024894;28;20954;-82
2022/06/05 02:55:22;;;;;;;5.20;3.55;;;;;;;;;;5024505;28;20417;-82
2022/06/05 02:57:49;;;;;;;4.72;3.22;;;;;;;;;;5026598;28;20441;-82
2022/06/05 03:00:17;;;;;;;3.47;2.63;;;;;;;;;;5024411;28;20404;-82
2022/06/05 03:05:28;;;;;;;4.40;2.95;;;;;;;;;;5021779;28;20589;-83
2022/06/05 03:07:54;;;;;;;6.25;2.95;;;;;;;;;;5023522;28;20405;-83
2022/06/05 03:10:20;;;;;;;3.90;2.97;;;;;;;;;;5018668;28;20438;-83
2022/06/05 03:12:46;;;;;;;4.55;3.08;;;;;;;;;;5024542;28;20446;-83
2022/06/05 03:15:15;;;;;;;5.13;3.17;;;;;;;;;;5025429;28;20512;-81
2022/06/05 03:17:41;;;;;;;4.72;3.22;;;;;;;;;;5016438;28;20401;-82
2022/06/05 03:20:07;;;;;;;5.32;3.60;;;;;;;;;;5021077;28;21010;-83
2022/06/05 03:22:33;;;;;;;5.43;3.65;;;;;;;;;;5021488;28;20424;-81
2022/06/05 03:24:59;;;;;;;4.50;3.13;;;;;;;;;;5013391;28;20448;-83
2022/06/05 03:27:26;;;;;;;5.32;3.50;;;;;;;;;;5013178;28;20424;-82
2022/06/05 03:29:52;;;;;;;5.53;4.07;;;;;;;;;;5019163;28;20408;-83
2022/06/05 03:32:18;;;;;;;5.82;3.75;;;;;;;;;;5010989;28;20468;-82
2022/06/05 03:34:44;;;;;;;7.18;4.88;;;;;;;;;;5016469;28;20401;-80
2022/06/05 03:37:11;;;;;;;8.13;5.25;;;;;;;;;;5015081;28;20436;-83
2022/06/05 03:39:37;;;;;;;10.25;6.45;;;;;;;;;;5016823;28;20432;-83
2022/06/05 03:42:03;;;;;;;11.32;5.60;;;;;;;;;;5016369;28;20401;-83
2022/06/05 03:44:29;;;;;;;10.88;7.18;;;;;;;;;;5015702;28;20420;-83
2022/06/05 03:46:55;;;;;;;9.57;6.70;;;;;;;;;;5015663;28;20417;-84
2022/06/05 03:49:21;;;;;;;9.40;5.88;;;;;;;;;;5017044;28;20412;-83
2022/06/05 03:51:47;;;;;;;6.60;5.00;;;;;;;;;;5018117;28;20125;-83
2022/06/05 03:54:13;;;;;;;7.90;5.68;;;;;;;;;;5018903;28;20037;-83
2022/06/05 03:56:39;;;;;;;8.43;5.43;;;;;;;;;;5017274;28;20511;-83
2022/06/05 03:59:05;;;;;;;6.75;4.70;;;;;;;;;;5013382;28;20090;-82
2022/06/05 04:01:31;;;;;;;7.60;5.05;;;16.20;99.90;;;;;;5019314;28;20049;-83
2022/06/05 04:03:57;;;;;;;7.03;4.35;;;;;;;;;;5010295;28;20037;-83
2022/06/05 04:06:27;;;;;;;7.20;4.68;;;15.10;99.90;;;;;;5020350;28;20512;-83
2022/06/05 04:08:57;;;;;;;6.72;4.30;;;16.10;99.90;;;;;;5016627;28;20421;-81
2022/06/05 04:11:24;;;;;;;7.93;4.63;;;;;;;;;;5018289;28;20030;-82
2022/06/05 04:13:50;;;;;;;5.25;3.90;;;;;;;;;;5012462;28;20117;-83
2022/06/05 04:16:21;;;;;;;4.68;3.17;;;16.00;99.90;;;;;;5017584;28;20026;-83
2022/06/05 04:18:48;;;;;;;9.02;4.32;;;;;;;;;;5017694;28;20033;-83
2022/06/05 04:21:18;;;;;;;6.28;3.63;;;;;;;;;;5032828;28;20029;-83
2022/06/05 04:23:44;;;;;;;7.13;4.63;;;14.70;99.90;;;;;;5014902;28;20113;-83
2022/06/05 04:26:11;;;;;;;7.85;4.90;;;;;;;;;;5019228;28;20030;-83
2022/06/05 04:28:38;;;;;;;7.60;5.35;;;;;;;;;;5006334;28;20036;-83
2022/06/05 04:31:04;;;;;;;7.55;4.35;;;16.10;99.90;;;;;;5013212;28;20052;-83
2022/06/05 04:33:34;;;;;;;8.43;5.10;;;14.80;99.90;;;;;;5008563;28;20025;-83
2022/06/05 04:35:59;;;;;;;6.95;4.50;;;;;;;;;;5012691;28;20030;-82
2022/06/05 04:38:25;;;;;;;6.47;4.55;;;;;;;;;;5015220;28;20105;-83
2022/06/05 04:40:51;;;;;;;7.90;5.10;;;;;;;;;;5014836;28;20030;-83
2022/06/05 04:43:17;;;;;;;7.05;4.22;;;;;;;;;;5016741;28;20108;-82
2022/06/05 04:45:44;;;;;;;8.07;4.88;;;;;;;;;;5015279;28;20688;-83
2022/06/05 04:48:10;;;;;;;8.85;4.88;;;;;;;;;;5021519;28;20026;-82
2022/06/05 04:50:37;;;;;;;6.60;4.75;;;16.20;99.90;;;;;;5016930;28;20719;-83
2022/06/05 04:53:03;;;;;;;8.10;5.50;;;15.20;99.90;;;;;;5019799;28;20030;-82
2022/06/05 04:55:29;;;;;;;11.75;5.43;;;;;;;;;;5031545;28;20024;-82
2022/06/05 04:57:58;;;;;;;8.55;4.75;;;;;;;;;;5022528;28;20031;-82
2022/06/05 05:00:24;;;;;;;4.45;3.53;;;;;;;;;;5018701;28;20018;-82
2022/06/05 05:02:51;;;;;;;6.63;4.57;;;;;;;;;;5019175;28;20042;-81
2022/06/05 05:05:17;;;;;;;7.90;4.65;;;;;;;;;;5033120;28;20553;-82
2022/06/05 05:07:42;;;;;;;9.57;4.93;;;16.20;99.90;;;;;;5018127;28;20028;-83
2022/06/05 05:10:09;;;;;;;7.10;4.75;;;;;;;;;;5013339;28;20029;-83
2022/06/05 05:12:35;;;;;;;8.00;5.30;;;;;;;;;;5013886;28;20387;-82
2022/06/05 05:15:01;;;;;;;8.35;5.78;;;;;;;;;;5012601;28;20164;-82
2022/06/05 05:17:27;;;;;;;5.68;4.00;;;;;;;;;;5008799;28;20032;-83
2022/06/05 05:19:53;;;;;;;9.32;5.20;;;;;;;;;;5015855;28;20101;-82
2022/06/05 05:22:19;;;;;;;6.95;4.30;;;;;;;;;;5010119;28;20027;-82
2022/06/05 05:24:45;;;;;;;5.88;3.40;;;;;;;;;;5012370;28;20038;-83
2022/06/05 05:27:11;;;;;;;9.98;4.20;;;;;;;;;;5008733;28;20034;-83
2022/06/05 05:29:39;;;;;;;6.70;4.47;;;;;;;;;;5012010;28;20034;-82
2022/06/05 05:32:05;;;;;;;7.55;3.88;;;;;;;;;;5005457;28;20037;-82
2022/06/05 05:34:31;;;;;;;6.45;4.85;;;;;;;;;;5004182;28;20021;-81
2022/06/05 05:36:57;;;;;;;6.65;4.30;;;;;;;;;;5008362;28;20049;-81
2022/06/05 05:42:08;;;;;;;7.53;4.03;;;;;;;;;;5004121;28;20776;-83
2022/06/05 05:44:43;;;;;;;6.28;3.75;;;16.90;99.90;;;;;;5010823;28;20026;-81
2022/06/05 05:47:12;;;;;;;4.57;3.50;;;16.70;99.90;;;;;;5007524;28;20454;-82
2022/06/05 05:49:38;;;;;;;4.88;2.95;;;;;;;;;;5004069;28;20030;-83
2022/06/05 05:52:05;;;;;;;8.02;3.70;;;;;;;;;;5005644;28;20030;-82
2022/06/05 05:54:31;;;;;;;5.55;3.40;;;;;;;;;;5005265;28;20034;-82
2022/06/05 05:56:57;;;;;;;5.32;3.03;;;;;;;;;;5013005;28;20030;-83
2022/06/05 05:59:24;;;;;;;4.50;3.05;;;;;;;;;;5007086;28;20108;-81
2022/06/05 06:01:50;;;;;;;6.38;4.22;;;17.40;99.90;;;;;;5011674;28;20111;-81
2022/06/05 06:04:16;;;;;;;7.40;3.28;;;;;;;;;;5007325;28;20026;-82
2022/06/05 06:06:44;;;;;;;6.25;3.60;;;16.90;99.90;;;;;;5012162;28;20524;-80
2022/06/05 06:09:10;;;;;;;4.50;3.40;;;;;;;;;;5013623;28;20019;-80
2022/06/05 06:11:36;;;;;;;6.60;4.10;;;;;;;;;;5016064;28;20052;-81
2022/06/05 06:14:03;;;;;;;21.77;9.32;;;;;;;;;;5014761;28;20010;-82
2022/06/05 06:16:28;;;;;;;23.92;10.32;;;;;;;;;;5019441;28;20022;-82
2022/06/05 06:18:55;;;;;;;26.85;11.07;;;16.90;99.90;;;;;;5017250;28;20070;-81
2022/06/05 06:21:22;;;;;;;23.02;9.48;;;;;;;;;;5015745;28;20601;-81
2022/06/05 06:23:48;;;;;;;12.50;6.15;;;;;;;;;;5017968;28;20034;-81
2022/06/05 06:26:14;;;;;;;9.25;5.63;;;;;;;;;;5020217;28;20073;-80
2022/06/05 06:28:40;;;;;;;8.95;5.15;;;;;;;;;;5012504;28;20485;-81
2022/06/05 06:31:07;;;;;;;7.63;4.93;;;17.00;99.90;;;;;;5011103;28;20416;-81
2022/06/05 06:33:33;;;;;;;7.90;4.95;;;;;;;;;;5008456;28;20040;-82
2022/06/05 06:36:03;;;;;;;6.78;5.05;;;16.70;99.90;;;;;;5004100;28;20033;-82
2022/06/05 06:38:29;;;;;;;11.05;6.90;;;;;;;;;;5014415;28;20057;-83
2022/06/05 06:40:59;;;;;;;10.02;5.82;;;;;;;;;;5004826;28;20037;-82
2022/06/05 06:43:25;;;;;;;8.93;5.72;;;;;;;;;;5000099;28;20385;-84
2022/06/05 06:45:51;;;;;;;8.65;5.03;;;;;;;;;;5003732;28;20041;-82
2022/06/05 06:48:17;;;;;;;8.95;5.35;;;;;;;;;;5001751;28;20037;-82
2022/06/05 06:50:43;;;;;;;7.65;5.78;;;;;;;;;;5007391;28;20205;-82
2022/06/05 06:53:09;;;;;;;8.07;4.72;;;;;;;;;;5007782;28;20029;-84
2022/06/05 06:55:36;;;;;;;9.00;6.07;;;16.50;99.90;;;;;;5007376;28;20034;-83
2022/06/05 06:58:02;;;;;;;10.13;6.15;;;;;;;;;;5002308;28;20023;-82
2022/06/05 07:00:28;;;;;;;11.15;5.63;;;;;;;;;;5008736;28;20034;-84
2022/06/05 07:02:54;;;;;;;7.93;5.03;;;;;;;;;;5003317;28;20034;-84
2022/06/05 07:05:21;;;;;;;14.05;7.32;;;;;;;;;;4998017;28;20637;-83
2022/06/05 07:07:47;;;;;;;8.25;5.80;;;;;;;;;;5006847;28;20030;-83
2022/06/05 07:10:13;;;;;;;8.88;5.70;;;;;;;;;;5004478;28;20333;-83
2022/06/05 07:12:39;;;;;;;11.63;6.43;;;;;;;;;;5005437;28;20025;-84
2022/06/05 07:15:06;;;;;;;12.50;7.45;;;16.50;99.90;;;;;;5011197;28;20034;-82
2022/06/05 07:17:32;;;;;;;10.93;6.55;;;;;;;;;;5030516;28;20006;-85
2022/06/05 07:19:58;;;;;;;11.60;6.90;;;;;;;;;;5035659;28;20041;-83
2022/06/05 07:22:24;;;;;;;7.47;5.15;;;;;;;;;;5033547;28;20014;-83
2022/06/05 07:24:50;;;;;;;12.45;6.60;;;;;;;;;;5037333;28;20034;-82
2022/06/05 07:27:16;;;;;;;10.48;5.82;;;;;;;;;;5035773;28;20029;-81
2022/06/05 07:29:42;;;;;;;9.82;6.28;;;;;;;;;;5034657;28;20177;-80
2022/06/05 07:32:08;;;;;;;11.93;6.75;;;;;;;;;;5032323;28;20056;-82
2022/06/05 07:34:34;;;;;;;9.30;5.43;;;;;;;;;;5026271;28;20109;-82
2022/06/05 07:37:00;;;;;;;10.95;5.88;;;;;;;;;;5025947;28;20046;-83
2022/06/05 07:39:29;;;;;;;8.20;5.13;;;16.50;99.90;;;;;;5023181;28;20026;-81
2022/06/05 07:41:58;;;;;;;9.27;4.97;;;;;;;;;;5016541;28;20034;-82
2022/06/05 07:44:27;;;;;;;9.60;5.78;;;16.40;99.90;;;;;;5026330;28;20350;-80
2022/06/05 07:46:53;;;;;;;11.57;4.18;;;;;;;;;;5019887;28;20159;-80
2022/06/05 07:49:20;;;;;;;7.45;4.88;;;;;;;;;;5006869;28;20022;-80
2022/06/05 07:54:32;;;;;;;10.00;5.70;;;16.00;99.90;;;;;;5019411;28;20095;-79
2022/06/05 07:56:57;;;;;;;8.50;5.10;;;;;;;;;;5015184;28;20085;-83
2022/06/05 07:59:25;;;;;;;6.43;4.30;;;16.70;99.90;;;;;;5020028;28;20497;-80
2022/06/05 08:01:51;;;;;;;10.52;4.90;;;;;;;;;;5017454;28;20031;-80
2022/06/05 08:04:16;;;;;;;5.88;3.63;;;17.50;99.90;;;;;;5026470;28;20029;-79
2022/06/05 08:06:42;;;;;;;6.93;4.38;;;17.00;99.90;;;;;;5017723;28;20041;-82
2022/06/05 08:09:08;;;;;;;6.90;4.28;;;;;;;;;;5020360;28;20029;-80
2022/06/05 08:11:35;;;;;;;7.53;4.90;;;;;;;;;;5018111;28;20038;-81
2022/06/05 08:14:02;;;;;;;7.97;4.95;;;16.70;99.90;;;;;;5021971;28;20022;-80
2022/06/05 08:16:28;;;;;;;12.55;4.53;;;16.60;99.90;;;;;;5013965;28;20034;-79
2022/06/05 08:18:54;;;;;;;5.93;4.20;;;;;;;;;;5015800;28;20018;-79
2022/06/05 08:21:21;;;;;;;6.43;4.07;;;16.70;99.90;;;;;;5018367;28;20281;-80
2022/06/05 08:23:48;;;;;;;5.60;3.65;;;;;;;;;;5023721;28;20022;-80
2022/06/05 08:26:14;;;;;;;7.50;4.68;;;;;;;;;;5020077;28;20049;-78
2022/06/05 08:28:40;;;;;;;7.53;4.45;;;16.60;99.90;;;;;;5014471;28;20037;-79
2022/06/05 08:31:06;;;;;;;5.50;3.45;;;;;;;;;;5019276;28;20830;-82
2022/06/05 08:33:32;;;;;;;6.40;3.78;;;16.60;99.90;;;;;;5010967;28;20026;-80
2022/06/05 08:35:58;;;;;;;8.27;3.40;;;;;;;;;;5019544;28;20038;-82
2022/06/05 08:41:27;;;;;;;5.15;3.30;;;;;;;;;;5017260;28;20056;-81
2022/06/05 08:44:34;;;;;;;6.10;3.22;;;16.70;99.90;;;;;;5015801;28;20117;-79
2022/06/05 08:47:03;;;;;;;5.45;3.17;;;;;;;;;;5015193;28;20494;-79
2022/06/05 08:49:53;;;;;;;4.32;2.92;;;14.00;99.90;;;;;;5013731;28;21972;-80
2022/06/05 08:52:39;;;;;;;4.18;2.30;;;;;;;;;;5021655;28;20117;-81
2022/06/05 08:55:30;;;;;;;4.72;2.55;;;16.90;99.90;;;;;;5020193;28;20390;-80
2022/06/05 08:58:03;;;;;;;6.13;2.33;;;;;;;;;;5020866;28;20033;-79
2022/06/05 09:00:36;;;;;;;3.47;2.17;;;;;;;;;;5025512;28;20040;-79
2022/06/05 09:03:07;;;;;;;4.85;2.65;;;18.30;99.90;;;;;;5011794;28;20060;-79
2022/06/05 09:05:38;;;;;;;3.88;2.28;;;;;;;;;;5008952;28;20042;-80
2022/06/05 09:08:14;;;;;;;3.40;2.40;;;17.60;99.90;;;;;;5011199;28;20600;-79
2022/06/05 09:10:44;;;;;;;3.38;2.13;;;;;;;;;;5018510;28;20026;-79
2022/06/05 09:13:10;;;;;;;7.78;3.10;;;;;;;;;;5018841;28;20033;-80
2022/06/05 09:15:52;;;;;;;3.40;2.15;;;17.30;99.90;;;;;;5013240;28;20271;-80
2022/06/05 09:18:19;;;;;;;5.57;2.42;;;;;;;;;;5012567;28;20048;-80
2022/06/05 09:20:45;;;;;;;2.50;1.85;;;;;;;;;;5014905;28;20085;-80
2022/06/05 09:23:26;;;;;;;4.88;2.03;;;17.20;99.90;;;;;;5010824;28;20045;-81
2022/06/05 09:25:59;;;;;;;4.28;2.00;;;17.30;99.90;;;;;;5003666;28;20120;-82
2022/06/05 09:28:50;;;;;;;2.47;1.60;;;;;;;;;;5006689;28;20026;-83
2022/06/05 09:31:34;;;;;;;3.78;1.17;;;;;;;;;;5000860;28;20034;-81
2022/06/05 09:34:02;;;;;;;7.38;1.65;;;;;;;;;;5001414;28;20014;-81
2022/06/05 09:36:31;;;;;;;2.08;1.08;;;17.20;99.90;;;;;;5010251;28;20361;-79
2022/06/05 09:39:05;;;;;;;2.20;0.95;;;;;;;;;;5011808;28;20045;-79
2022/06/05 09:41:47;;;;;;;1.58;0.98;;;17.00;99.90;;;;;;5011746;28;20583;-80
2022/06/05 09:44:45;;;;;;;2.75;1.27;;;16.90;99.90;;;;;;5017246;28;20030;-81
2022/06/05 09:47:31;;;;;;;1.67;1.02;;;;;;;;;;5009931;28;20050;-80
2022/06/05 09:50:01;;;;;;;2.50;0.85;;;17.50;99.90;;;;;;5000786;28;20046;-81
2022/06/05 09:52:28;;;;;;;1.25;0.80;;;;;;;;;;5007212;28;20113;-80
2022/06/05 09:55:04;;;;;;;4.80;1.45;;;;;;;;;;5011279;28;20030;-81
2022/06/05 10:00:53;;;;;;;4.97;0.80;;;18.90;99.90;;;;;;5002029;28;20417;-82
2022/06/05 10:03:42;;;;;;;2.75;1.52;;;18.20;99.90;;;;;;5003740;28;20042;-82
2022/06/05 10:06:26;;;;;;;1.45;0.65;;;;;;;;;;5011247;28;20046;-81
2022/06/05 10:09:11;;;;;;;2.00;0.98;;;19.60;99.90;;;;;;5015393;28;20034;-81
2022/06/05 10:11:49;;;;;;;1.38;0.68;;;18.90;99.90;;;;;;5013276;28;20024;-82
2022/06/05 10:14:32;;;;;;;2.70;0.40;;;19.40;99.90;;;;;;5011427;28;20034;-83
2022/06/05 10:17:31;;;;;;;1.27;0.68;;;20.70;99.90;;;;;;5010702;28;20038;-82
2022/06/05 10:19:57;;;;;;;1.25;0.73;;;;;;;;;;5012005;28;20505;-81
2022/06/05 10:22:45;;;;;;;3.80;0.75;;;20.60;99.90;;;;;;5010822;28;20087;-82
2022/06/05 10:25:37;;;;;;;0.88;0.50;;;20.80;99.90;;;;;;5006164;28;20034;-82
2022/06/05 10:28:14;;;;;;;1.35;0.50;;;21.60;99.90;;;;;;5012816;28;20030;-81
2022/06/05 10:30:59;;;;;;;10.63;3.03;;;21.60;99.90;;;;;;5018449;28;20469;-81
2022/06/05 10:33:43;;;;;;;1.65;0.88;;;21.30;99.90;;;;;;5018460;28;20091;-80
2022/06/05 10:36:16;;;;;;;0.50;0.32;;;22.40;99.90;;;;;;5020948;28;20033;-82
2022/06/05 10:38:42;;;;;;;2.72;0.80;;;;;;;;;;5011271;28;20030;-81
2022/06/05 10:41:20;;;;;;;0.80;0.50;;;22.80;99.90;;;;;;5009620;28;20033;-80
2022/06/05 10:44:03;;;;;;;5.30;2.13;;;23.00;99.90;;;;;;5022326;28;20039;-80
2022/06/05 10:46:32;;;;;;;2.88;1.50;;;24.30;99.90;;;;;;5014575;28;20034;-79
2022/06/05 10:48:59;;;;;;;5.57;2.20;;;;;;;;;;5012997;28;20538;-79
2022/06/05 10:51:35;;;;;;;1.98;0.98;;;23.50;99.90;;;;;;5016066;28;20034;-80
2022/06/05 10:54:01;;;;;;;4.03;1.80;;;;;;;;;;5017064;28;20026;-79
2022/06/05 10:56:45;;;;;;;3.25;1.20;;;24.20;99.90;;;;;;5017667;28;20521;-80
2022/06/05 10:59:13;;;;;;;1.23;0.52;;;;;;;;;;5017471;28;20053;-80
2022/06/05 11:02:01;;;;;;;0.95;0.55;;;24.70;99.90;;;;;;5012101;28;20109;-79
2022/06/05 11:04:42;;;;;;;1.55;0.85;;;24.80;99.90;;;;;;5015631;28;20009;-82
2022/06/05 11:07:19;;;;;;;1.90;1.30;;;25.00;99.90;;;;;;5018620;28;20038;-82
2022/06/05 11:10:04;;;;;;;1.38;0.60;;;24.90;99.90;;;;;;5023516;28;20042;-81
2022/06/05 11:15:24;;;;;;;3.60;1.08;;;24.30;99.90;;;;;;5022192;28;20513;-81
2022/06/05 11:18:14;;;;;;;1.52;0.43;;;24.40;99.90;;;;;;5020402;28;20170;-81
2022/06/05 11:20:50;;;;;;;2.75;0.68;;;24.90;99.90;;;;;;5002870;28;20030;-82
2022/06/05 11:23:30;;;;;;;1.65;0.57;;;;;;;;;;5009902;28;20119;-81
2022/06/05 11:26:05;;;;;;;3.15;0.90;;;24.40;99.90;;;;;;5020025;28;20058;-82
2022/06/05 11:29:12;;;;;;;0.82;0.50;;;24.70;99.90;;;;;;5011455;28;20025;-82
2022/06/05 11:31:38;;;;;;;0.82;0.40;;;;;;;;;;5012717;28;20033;-81
2022/06/05 11:34:25;;;;;;;1.38;0.77;;;24.40;99.90;;;;;;5019753;28;20041;-80
2022/06/05 11:36:53;;;;;;;1.00;0.43;;;24.70;99.90;;;;;;5022804;28;20029;-79
2022/06/05 11:39:58;;;;;;;0.63;0.30;;;;;;;;;;5022367;28;20029;-78
2022/06/05 11:42:33;;;;;;;0.65;0.38;;;24.40;99.90;;;;;;4934694;29;20102;-79
2022/06/05 11:45:28;;;;;;;0.82;0.70;;;24.70;99.90;;;;;;4942739;29;20051;-79
2022/06/05 11:48:28;;;;;;;1.85;0.50;;;24.60;99.90;;;;;;4997050;28;20053;-78
2022/06/05 11:51:17;;;;;;;3.65;0.55;;;24.40;99.90;;;;;;5014292;28;20029;-77
2022/06/05 11:54:17;;;;;;;0.85;0.40;;;24.70;99.90;;;;;;5004628;28;20160;-78
2022/06/05 11:57:07;;;;;;;1.13;0.30;;;24.40;99.90;;;;;;5010771;28;20030;-78
2022/06/05 11:59:45;;;;;;;0.95;0.52;;;24.50;99.90;;;;;;5003463;28;20034;-79
2022/06/05 12:02:13;;;;;;;4.22;0.50;;;24.70;99.90;;;;;;5007586;28;20037;-78
2022/06/05 12:05:10;;;;;;;1.40;0.50;;;25.30;99.90;;;;;;5004514;28;20080;-76
2022/06/05 12:07:36;;;;;;;0.40;0.30;;;25.30;99.90;;;;;;5016214;28;20053;-78
2022/06/05 12:10:28;;;;;;;2.95;0.70;;;25.20;99.90;;;;;;5011211;28;20030;-79
2022/06/05 12:13:27;;;;;;;2.80;0.40;;;24.20;99.90;;;;;;5015951;28;20101;-79
2022/06/05 12:16:06;;;;;;;2.75;0.45;;;25.00;99.90;;;;;;5009740;28;20090;-78
2022/06/05 12:18:40;;;;;;;0.57;0.30;;;24.80;99.90;;;;;;5008753;28;20018;-77
2022/06/05 12:21:34;;;;;;;3.72;0.30;;;24.30;99.90;;;;;;5015971;28;20038;-79
2022/06/05 12:24:08;;;;;;;1.73;0.50;;;24.80;99.90;;;;;;5005357;28;20033;-77
2022/06/05 12:26:55;;;;;;;0.35;0.20;;;24.80;99.90;;;;;;5022279;28;20041;-79
2022/06/05 12:29:35;;;;;;;0.80;0.47;;;24.40;99.90;;;;;;5021139;28;20030;-79
2022/06/05 12:32:06;;;;;;;1.58;0.20;;;24.80;99.90;;;;;;5023323;28;20021;-78
2022/06/05 12:34:40;;;;;;;0.68;0.35;;;;;;;;;;5019724;28;20258;-78
2022/06/05 12:37:17;;;;;;;2.22;0.40;;;23.90;99.90;;;;;;5022498;28;20033;-78
2022/06/05 12:39:47;;;;;;;0.90;0.40;;;24.60;99.90;;;;;;5021653;28;20040;-79
2022/06/05 12:42:18;;;;;;;1.10;0.50;;;;;;;;;;5023172;28;20109;-79
2022/06/05 12:44:47;;;;;;;0.52;0.35;;;24.30;99.90;;;;;;5011404;28;20037;-79
2022/06/05 12:47:33;;;;;;;3.97;0.25;;;;;;;;;;5014733;28;20049;-80
2022/06/05 12:50:16;;;;;;;0.45;0.13;;;24.40;99.90;;;;;;5012882;28;20038;-80
2022/06/05 12:53:00;;;;;;;2.47;0.45;;;23.70;99.90;;;;;;5019085;28;20038;-81
2022/06/05 12:56:01;;;;;;;2.20;0.63;;;22.70;99.90;;;;;;5021954;28;20065;-80
2022/06/05 12:58:44;;;;;;;3.15;0.63;;;22.50;99.90;;;;;;5016672;28;20398;-79
2022/06/05 13:01:17;;;;;;;0.93;0.43;;;24.00;99.90;;;;;;5019048;28;20045;-81
2022/06/05 13:04:00;;;;;;;0.60;0.32;;;;;;;;;;5011164;28;20042;-81
2022/06/05 13:06:42;;;;;;;0.22;0.15;;;;;;;;;;5015048;28;20041;-81
2022/06/05 13:09:22;;;;;;;1.90;0.50;;;22.40;99.90;;;;;;5017225;28;20104;-80
2022/06/05 13:11:57;;;;;;;0.57;0.25;;;22.40;99.90;;;;;;5016885;28;20038;-80
2022/06/05 13:14:52;;;;;;;0.70;0.50;;;23.40;99.90;;;;;;5018909;28;20030;-80
2022/06/05 13:17:24;;;;;;;0.40;0.25;;;23.50;99.90;;;;;;5014775;28;20109;-80
2022/06/05 13:19:50;;;;;;;0.93;0.40;;;;;;;;;;5012625;28;20044;-79
2022/06/05 13:22:29;;;;;;;0.50;0.22;;;23.30;99.90;;;;;;5006091;28;20203;-82
2022/06/05 13:25:14;;;;;;;2.15;0.40;;;;;;;;;;5021620;28;20441;-80
2022/06/05 13:27:40;;;;;;;0.45;0.25;;;;;;;;;;5013449;28;20026;-79
2022/06/05 13:30:06;;;;;;;0.52;0.20;;;;;;;;;;5019383;28;20022;-80
2022/06/05 13:32:47;;;;;;;1.23;0.60;;;23.80;99.90;;;;;;5021653;28;20029;-79
2022/06/05 13:35:13;;;;;;;0.47;0.20;;;;;;;;;;5026719;28;20702;-78
2022/06/05 13:37:55;;;;;;;1.00;0.38;;;;;;;;;;5021056;28;20018;-79
2022/06/05 13:40:44;;;;;;;6.30;0.60;;;24.50;99.90;;;;;;5019630;28;20026;-79
2022/06/05 13:43:21;;;;;;;0.98;0.38;;;24.30;99.90;;;;;;5009925;28;20022;-78
2022/06/05 13:46:17;;;;;;;0.57;0.30;;;25.00;99.90;;;;;;5015512;28;20099;-79
2022/06/05 13:48:52;;;;;;;1.20;0.17;;;25.50;99.90;;;;;;5016712;28;20030;-80
2022/06/05 13:51:27;;;;;;;1.90;0.10;;;25.30;99.90;;;;;;5019338;28;20209;-79
2022/06/05 13:54:19;;;;;;;0.22;0.00;;;24.90;99.90;;;;;;5017444;28;20037;-79
2022/06/05 13:57:03;;;;;;;1.92;0.30;;;24.20;99.90;;;;;;5018013;28;20025;-78
2022/06/05 13:59:29;;;;;;;0.68;0.30;;;;;;;;;;5011389;28;20029;-79
2022/06/05 14:02:14;;;;;;;3.58;0.30;;;;;;;;;;5012703;28;20030;-79
2022/06/05 14:05:20;;;;;;;3.20;1.17;;;25.40;99.90;;;;;;5001729;28;20036;-81
2022/06/05 14:07:46;;;;;;;0.50;0.10;;;;;;;;;;4951591;28;20114;-79
2022/06/05 14:10:23;;;;;;;0.43;0.20;;;25.30;99.90;;;;;;4953764;28;20035;-79
2022/06/05 14:13:07;;;;;;;0.40;0.20;;;25.10;99.90;;;;;;4982237;28;20106;-79
2022/06/05 14:15:43;;;;;;;2.47;0.75;;;26.20;99.90;;;;;;4994365;28;20030;-78
2022/06/05 14:18:20;;;;;;;0.82;0.30;;;26.30;99.90;;;;;;5006856;28;20661;-80
2022/06/05 14:20:49;;;;;;;0.82;0.63;;;26.80;99.90;;;;;;5002434;28;20030;-79
2022/06/05 14:23:21;;;;;;;0.93;0.30;;;27.20;99.90;;;;;;5010766;28;20676;-79
2022/06/05 14:25:51;;;;;;;0.35;0.35;;;26.60;99.60;;;;;;5012173;28;20124;-80
2022/06/05 14:28:19;;;;;;;0.30;0.10;;;26.40;98.10;;;;;;5014208;28;20055;-78
2022/06/05 14:30:57;;;;;;;2.42;0.40;;;26.40;99.90;;;;;;5010519;28;20129;-79
2022/06/05 14:33:36;;;;;;;4.60;0.22;;;25.90;99.90;;;;;;5007988;28;20089;-80
2022/06/05 14:36:03;;;;;;;2.08;0.20;;;25.70;99.20;;;;;;5011677;28;20037;-79
2022/06/05 14:38:44;;;;;;;0.55;0.20;;;25.40;99.40;;;;;;5013586;28;20034;-79
2022/06/05 14:41:19;;;;;;;1.65;0.30;;;24.90;99.90;;;;;;5007454;28;20034;-78